sensor_id;sensor_type;location;lat;lon;timestamp;P1;durP1;ratioP1;P2;durP2;ratioP2
40755;SDS011;26461;45.630;9.418;2022-11-20T00:00:44;10.57;;;4.53;;
40755;SDS011;26461;45.630;9.418;2022-11-20T00:03:54;20.65;;;5.60;;
40755;SDS011;26461;45.630;9.418;2022-11-20T00:07:10;10.85;;;4.93;;
40755;SDS011;26461;45.630;9.418;2022-11-20T00:10:16;16.02;;;5.65;;
40755;SDS011;26461;45.630;9.418;2022-11-20T00:13:31;9.43;;;5.35;;
40755;SDS011;26461;45.630;9.418;2022-11-20T00:16:42;11.18;;;5.40;;
40755;SDS011;26461;45.630;9.418;2022-11-20T00:19:59;11.73;;;8.23;;
40755;SDS011;26461;45.630;9.418;2022-11-20T00:23:14;6.78;;;4.25;;
40755;SDS011;26461;45.630;9.418;2022-11-20T00:26:29;9.80;;;5.15;;
40755;SDS011;26461;45.630;9.418;2022-11-20T00:29:39;9.63;;;3.80;;
40755;SDS011;26461;45.630;9.418;2022-11-20T00:32:46;7.70;;;5.40;;
40755;SDS011;26461;45.630;9.418;2022-11-20T00:36:04;6.75;;;4.63;;
40755;SDS011;26461;45.630;9.418;2022-11-20T00:39:17;7.05;;;4.45;;
40755;SDS011;26461;45.630;9.418;2022-11-20T00:42:27;8.98;;;4.78;;
40755;SDS011;26461;45.630;9.418;2022-11-20T00:45:33;8.18;;;3.10;;
40755;SDS011;26461;45.630;9.418;2022-11-20T00:48:47;10.48;;;2.97;;
40755;SDS011;26461;45.630;9.418;2022-11-20T00:52:01;6.28;;;4.10;;
40755;SDS011;26461;45.630;9.418;2022-11-20T00:55:12;6.05;;;3.22;;
40755;SDS011;26461;45.630;9.418;2022-11-20T00:58:30;5.72;;;2.55;;
40755;SDS011;26461;45.630;9.418;2022-11-20T01:01:38;6.15;;;3.13;;
40755;SDS011;26461;45.630;9.418;2022-11-20T01:04:49;9.23;;;2.55;;
40755;SDS011;26461;45.630;9.418;2022-11-20T01:08:00;7.20;;;2.42;;
40755;SDS011;26461;45.630;9.418;2022-11-20T01:11:32;8.80;;;3.67;;
40755;SDS011;26461;45.630;9.418;2022-11-20T01:14:47;7.45;;;2.38;;
40755;SDS011;26461;45.630;9.418;2022-11-20T01:18:01;9.60;;;6.25;;
40755;SDS011;26461;45.630;9.418;2022-11-20T01:21:15;6.43;;;2.75;;
40755;SDS011;26461;45.630;9.418;2022-11-20T01:24:37;6.15;;;4.43;;
40755;SDS011;26461;45.630;9.418;2022-11-20T01:27:59;5.25;;;2.55;;
40755;SDS011;26461;45.630;9.418;2022-11-20T01:34:34;4.45;;;2.05;;
40755;SDS011;26461;45.630;9.418;2022-11-20T01:37:44;6.78;;;2.13;;
40755;SDS011;26461;45.630;9.418;2022-11-20T01:41:00;5.55;;;2.58;;
40755;SDS011;26461;45.630;9.418;2022-11-20T01:44:06;5.07;;;2.10;;
40755;SDS011;26461;45.630;9.418;2022-11-20T01:47:13;11.27;;;2.55;;
40755;SDS011;26461;45.630;9.418;2022-11-20T01:50:30;5.75;;;1.90;;
40755;SDS011;26461;45.630;9.418;2022-11-20T01:53:44;3.13;;;1.17;;
40755;SDS011;26461;45.630;9.418;2022-11-20T01:56:54;3.97;;;1.10;;
40755;SDS011;26461;45.630;9.418;2022-11-20T02:00:10;5.30;;;2.95;;
40755;SDS011;26461;45.630;9.418;2022-11-20T02:03:22;6.13;;;2.13;;
40755;SDS011;26461;45.630;9.418;2022-11-20T02:06:46;5.93;;;1.23;;
40755;SDS011;26461;45.630;9.418;2022-11-20T02:10:11;4.28;;;1.40;;
40755;SDS011;26461;45.630;9.418;2022-11-20T02:13:23;5.93;;;1.20;;
40755;SDS011;26461;45.630;9.418;2022-11-20T02:17:04;6.93;;;2.67;;
40755;SDS011;26461;45.630;9.418;2022-11-20T02:20:15;4.18;;;1.52;;
40755;SDS011;26461;45.630;9.418;2022-11-20T02:27:03;3.58;;;0.88;;
40755;SDS011;26461;45.630;9.418;2022-11-20T02:30:26;7.15;;;2.55;;
40755;SDS011;26461;45.630;9.418;2022-11-20T02:33:38;2.40;;;0.70;;
40755;SDS011;26461;45.630;9.418;2022-11-20T02:36:51;4.28;;;1.73;;
40755;SDS011;26461;45.630;9.418;2022-11-20T02:40:06;5.20;;;0.75;;
40755;SDS011;26461;45.630;9.418;2022-11-20T02:43:21;5.30;;;1.30;;
40755;SDS011;26461;45.630;9.418;2022-11-20T02:46:33;4.22;;;1.35;;
40755;SDS011;26461;45.630;9.418;2022-11-20T02:49:50;5.03;;;0.60;;
40755;SDS011;26461;45.630;9.418;2022-11-20T02:53:03;6.00;;;0.95;;
40755;SDS011;26461;45.630;9.418;2022-11-20T02:56:17;3.45;;;1.40;;
40755;SDS011;26461;45.630;9.418;2022-11-20T02:59:23;3.90;;;0.70;;
40755;SDS011;26461;45.630;9.418;2022-11-20T03:02:40;3.95;;;1.25;;
40755;SDS011;26461;45.630;9.418;2022-11-20T03:06:00;6.32;;;2.05;;
40755;SDS011;26461;45.630;9.418;2022-11-20T03:09:06;2.20;;;0.63;;
40755;SDS011;26461;45.630;9.418;2022-11-20T03:12:18;2.13;;;0.68;;
40755;SDS011;26461;45.630;9.418;2022-11-20T03:15:38;3.10;;;1.35;;
40755;SDS011;26461;45.630;9.418;2022-11-20T03:18:47;5.38;;;2.88;;
40755;SDS011;26461;45.630;9.418;2022-11-20T03:22:00;10.40;;;2.28;;
40755;SDS011;26461;45.630;9.418;2022-11-20T03:25:15;3.70;;;1.80;;
40755;SDS011;26461;45.630;9.418;2022-11-20T03:28:26;2.90;;;0.95;;
40755;SDS011;26461;45.630;9.418;2022-11-20T03:31:43;3.05;;;0.77;;
40755;SDS011;26461;45.630;9.418;2022-11-20T03:34:49;3.25;;;1.48;;
40755;SDS011;26461;45.630;9.418;2022-11-20T03:37:56;4.93;;;1.20;;
40755;SDS011;26461;45.630;9.418;2022-11-20T03:41:18;3.17;;;0.73;;
40755;SDS011;26461;45.630;9.418;2022-11-20T03:44:34;3.90;;;1.27;;
40755;SDS011;26461;45.630;9.418;2022-11-20T03:47:40;3.45;;;2.03;;
40755;SDS011;26461;45.630;9.418;2022-11-20T03:54:46;9.40;;;1.75;;
40755;SDS011;26461;45.630;9.418;2022-11-20T03:57:57;8.50;;;1.77;;
40755;SDS011;26461;45.630;9.418;2022-11-20T04:01:15;3.75;;;1.25;;
40755;SDS011;26461;45.630;9.418;2022-11-20T04:04:23;2.50;;;0.90;;
40755;SDS011;26461;45.630;9.418;2022-11-20T04:07:29;2.45;;;0.88;;
40755;SDS011;26461;45.630;9.418;2022-11-20T04:10:40;3.67;;;0.93;;
40755;SDS011;26461;45.630;9.418;2022-11-20T04:13:50;3.47;;;1.15;;
40755;SDS011;26461;45.630;9.418;2022-11-20T04:16:59;10.45;;;2.83;;
40755;SDS011;26461;45.630;9.418;2022-11-20T04:20:13;3.28;;;1.05;;
40755;SDS011;26461;45.630;9.418;2022-11-20T04:23:22;4.85;;;1.38;;
40755;SDS011;26461;45.630;9.418;2022-11-20T04:26:33;6.15;;;1.42;;
40755;SDS011;26461;45.630;9.418;2022-11-20T04:29:53;3.00;;;1.10;;
40755;SDS011;26461;45.630;9.418;2022-11-20T04:33:05;3.75;;;1.45;;
40755;SDS011;26461;45.630;9.418;2022-11-20T04:39:25;3.80;;;0.85;;
40755;SDS011;26461;45.630;9.418;2022-11-20T04:42:39;3.45;;;1.25;;
40755;SDS011;26461;45.630;9.418;2022-11-20T04:46:02;2.42;;;0.63;;
40755;SDS011;26461;45.630;9.418;2022-11-20T04:49:18;5.35;;;1.33;;
40755;SDS011;26461;45.630;9.418;2022-11-20T04:52:24;4.93;;;1.42;;
40755;SDS011;26461;45.630;9.418;2022-11-20T04:55:31;5.65;;;1.50;;
40755;SDS011;26461;45.630;9.418;2022-11-20T04:58:40;3.10;;;0.80;;
40755;SDS011;26461;45.630;9.418;2022-11-20T05:01:54;3.78;;;0.90;;
40755;SDS011;26461;45.630;9.418;2022-11-20T05:05:04;2.65;;;0.80;;
40755;SDS011;26461;45.630;9.418;2022-11-20T05:08:10;2.55;;;1.50;;
40755;SDS011;26461;45.630;9.418;2022-11-20T05:11:22;6.90;;;0.80;;
40755;SDS011;26461;45.630;9.418;2022-11-20T05:14:37;2.30;;;0.85;;
40755;SDS011;26461;45.630;9.418;2022-11-20T05:17:53;4.32;;;0.73;;
40755;SDS011;26461;45.630;9.418;2022-11-20T05:21:08;6.43;;;0.60;;
40755;SDS011;26461;45.630;9.418;2022-11-20T05:24:29;7.70;;;0.90;;
40755;SDS011;26461;45.630;9.418;2022-11-20T05:27:40;2.72;;;0.98;;
40755;SDS011;26461;45.630;9.418;2022-11-20T05:30:49;3.55;;;0.93;;
40755;SDS011;26461;45.630;9.418;2022-11-20T05:34:04;2.45;;;0.85;;
40755;SDS011;26461;45.630;9.418;2022-11-20T05:37:09;3.05;;;0.40;;
40755;SDS011;26461;45.630;9.418;2022-11-20T05:40:18;2.40;;;0.77;;
40755;SDS011;26461;45.630;9.418;2022-11-20T05:43:31;4.28;;;0.50;;
40755;SDS011;26461;45.630;9.418;2022-11-20T05:46:40;2.35;;;0.40;;
40755;SDS011;26461;45.630;9.418;2022-11-20T05:49:52;4.35;;;0.75;;
40755;SDS011;26461;45.630;9.418;2022-11-20T05:53:04;2.38;;;0.50;;
40755;SDS011;26461;45.630;9.418;2022-11-20T05:56:24;3.40;;;0.50;;
40755;SDS011;26461;45.630;9.418;2022-11-20T05:59:46;2.38;;;0.68;;
40755;SDS011;26461;45.630;9.418;2022-11-20T06:03:08;2.42;;;0.60;;
40755;SDS011;26461;45.630;9.418;2022-11-20T06:06:25;2.10;;;0.50;;
40755;SDS011;26461;45.630;9.418;2022-11-20T06:09:37;3.17;;;0.60;;
40755;SDS011;26461;45.630;9.418;2022-11-20T06:12:57;2.30;;;0.60;;
40755;SDS011;26461;45.630;9.418;2022-11-20T06:16:17;6.10;;;0.40;;
40755;SDS011;26461;45.630;9.418;2022-11-20T06:19:46;2.13;;;0.57;;
40755;SDS011;26461;45.630;9.418;2022-11-20T06:23:00;4.93;;;0.50;;
40755;SDS011;26461;45.630;9.418;2022-11-20T06:26:18;2.67;;;0.45;;
40755;SDS011;26461;45.630;9.418;2022-11-20T06:29:44;2.42;;;0.40;;
40755;SDS011;26461;45.630;9.418;2022-11-20T06:33:03;2.22;;;0.40;;
40755;SDS011;26461;45.630;9.418;2022-11-20T06:36:13;2.00;;;0.50;;
40755;SDS011;26461;45.630;9.418;2022-11-20T06:39:29;1.80;;;0.40;;
40755;SDS011;26461;45.630;9.418;2022-11-20T06:42:40;3.75;;;1.15;;
40755;SDS011;26461;45.630;9.418;2022-11-20T06:45:53;4.10;;;0.60;;
40755;SDS011;26461;45.630;9.418;2022-11-20T06:49:25;2.42;;;0.50;;
40755;SDS011;26461;45.630;9.418;2022-11-20T06:52:40;2.60;;;0.50;;
40755;SDS011;26461;45.630;9.418;2022-11-20T06:56:06;2.10;;;0.40;;
40755;SDS011;26461;45.630;9.418;2022-11-20T06:59:25;1.92;;;0.40;;
40755;SDS011;26461;45.630;9.418;2022-11-20T07:02:48;5.03;;;0.73;;
40755;SDS011;26461;45.630;9.418;2022-11-20T07:06:11;2.85;;;0.73;;
40755;SDS011;26461;45.630;9.418;2022-11-20T07:09:29;2.50;;;1.05;;
40755;SDS011;26461;45.630;9.418;2022-11-20T07:13:00;2.00;;;0.40;;
40755;SDS011;26461;45.630;9.418;2022-11-20T07:16:16;2.08;;;0.50;;
40755;SDS011;26461;45.630;9.418;2022-11-20T07:19:35;2.28;;;0.40;;
40755;SDS011;26461;45.630;9.418;2022-11-20T07:22:41;2.47;;;0.50;;
40755;SDS011;26461;45.630;9.418;2022-11-20T07:25:55;2.25;;;0.55;;
40755;SDS011;26461;45.630;9.418;2022-11-20T07:29:07;3.08;;;0.77;;
40755;SDS011;26461;45.630;9.418;2022-11-20T07:32:14;2.55;;;0.50;;
40755;SDS011;26461;45.630;9.418;2022-11-20T07:35:39;2.22;;;0.57;;
40755;SDS011;26461;45.630;9.418;2022-11-20T07:38:50;2.03;;;0.52;;
40755;SDS011;26461;45.630;9.418;2022-11-20T07:42:04;1.77;;;0.35;;
40755;SDS011;26461;45.630;9.418;2022-11-20T07:45:17;2.00;;;0.40;;
40755;SDS011;26461;45.630;9.418;2022-11-20T07:48:32;1.88;;;0.47;;
40755;SDS011;26461;45.630;9.418;2022-11-20T07:51:42;1.80;;;0.40;;
40755;SDS011;26461;45.630;9.418;2022-11-20T07:54:54;4.60;;;0.50;;
40755;SDS011;26461;45.630;9.418;2022-11-20T07:58:05;2.83;;;0.70;;
40755;SDS011;26461;45.630;9.418;2022-11-20T08:01:14;1.90;;;0.40;;
40755;SDS011;26461;45.630;9.418;2022-11-20T08:04:21;6.93;;;0.60;;
40755;SDS011;26461;45.630;9.418;2022-11-20T08:07:40;2.10;;;0.47;;
40755;SDS011;26461;45.630;9.418;2022-11-20T08:10:57;2.08;;;0.40;;
40755;SDS011;26461;45.630;9.418;2022-11-20T08:14:30;3.13;;;0.40;;
40755;SDS011;26461;45.630;9.418;2022-11-20T08:17:44;1.85;;;0.30;;
40755;SDS011;26461;45.630;9.418;2022-11-20T08:21:03;1.80;;;0.40;;
40755;SDS011;26461;45.630;9.418;2022-11-20T08:24:14;2.00;;;0.60;;
40755;SDS011;26461;45.630;9.418;2022-11-20T08:27:25;6.60;;;0.47;;
40755;SDS011;26461;45.630;9.418;2022-11-20T08:30:32;2.05;;;0.82;;
40755;SDS011;26461;45.630;9.418;2022-11-20T08:33:47;2.20;;;0.90;;
40755;SDS011;26461;45.630;9.418;2022-11-20T08:37:05;2.00;;;0.40;;
40755;SDS011;26461;45.630;9.418;2022-11-20T08:40:16;2.28;;;0.77;;
40755;SDS011;26461;45.630;9.418;2022-11-20T08:43:22;1.90;;;0.35;;
40755;SDS011;26461;45.630;9.418;2022-11-20T08:46:39;2.17;;;0.50;;
40755;SDS011;26461;45.630;9.418;2022-11-20T08:49:54;5.03;;;1.15;;
40755;SDS011;26461;45.630;9.418;2022-11-20T08:53:06;3.33;;;1.65;;
40755;SDS011;26461;45.630;9.418;2022-11-20T08:56:21;5.90;;;1.17;;
40755;SDS011;26461;45.630;9.418;2022-11-20T08:59:44;4.57;;;1.05;;
40755;SDS011;26461;45.630;9.418;2022-11-20T09:02:56;2.10;;;0.40;;
40755;SDS011;26461;45.630;9.418;2022-11-20T09:06:11;3.45;;;0.40;;
40755;SDS011;26461;45.630;9.418;2022-11-20T09:09:27;3.75;;;0.82;;
40755;SDS011;26461;45.630;9.418;2022-11-20T09:12:33;2.65;;;0.60;;
40755;SDS011;26461;45.630;9.418;2022-11-20T09:16:03;2.67;;;0.38;;
40755;SDS011;26461;45.630;9.418;2022-11-20T09:19:38;2.33;;;0.40;;
40755;SDS011;26461;45.630;9.418;2022-11-20T09:22:53;8.77;;;0.50;;
40755;SDS011;26461;45.630;9.418;2022-11-20T09:26:05;3.33;;;0.70;;
40755;SDS011;26461;45.630;9.418;2022-11-20T09:29:27;3.25;;;0.73;;
40755;SDS011;26461;45.630;9.418;2022-11-20T09:32:40;2.00;;;0.40;;
40755;SDS011;26461;45.630;9.418;2022-11-20T09:35:50;2.15;;;0.50;;
40755;SDS011;26461;45.630;9.418;2022-11-20T09:39:00;2.13;;;0.50;;
40755;SDS011;26461;45.630;9.418;2022-11-20T09:42:15;2.30;;;0.70;;
40755;SDS011;26461;45.630;9.418;2022-11-20T09:56:41;1.80;;;0.40;;
40755;SDS011;26461;45.630;9.418;2022-11-20T10:00:14;3.13;;;0.50;;
40755;SDS011;26461;45.630;9.418;2022-11-20T10:03:48;2.00;;;0.40;;
40755;SDS011;26461;45.630;9.418;2022-11-20T10:07:08;3.50;;;0.43;;
40755;SDS011;26461;45.630;9.418;2022-11-20T10:31:51;2.60;;;0.95;;
40755;SDS011;26461;45.630;9.418;2022-11-20T10:35:20;3.85;;;0.73;;
40755;SDS011;26461;45.630;9.418;2022-11-20T10:38:35;3.05;;;1.15;;
40755;SDS011;26461;45.630;9.418;2022-11-20T10:41:53;5.43;;;0.70;;
40755;SDS011;26461;45.630;9.418;2022-11-20T10:48:52;2.10;;;0.60;;
40755;SDS011;26461;45.630;9.418;2022-11-20T10:52:11;1.60;;;0.30;;
40755;SDS011;26461;45.630;9.418;2022-11-20T10:55:48;2.55;;;0.95;;
40755;SDS011;26461;45.630;9.418;2022-11-20T11:02:54;3.45;;;0.80;;
40755;SDS011;26461;45.630;9.418;2022-11-20T11:09:54;2.58;;;0.70;;
40755;SDS011;26461;45.630;9.418;2022-11-20T11:13:04;3.22;;;1.08;;
40755;SDS011;26461;45.630;9.418;2022-11-20T11:16:53;5.00;;;3.30;;
40755;SDS011;26461;45.630;9.418;2022-11-20T11:20:14;4.78;;;0.90;;
40755;SDS011;26461;45.630;9.418;2022-11-20T11:26:59;2.88;;;0.75;;
40755;SDS011;26461;45.630;9.418;2022-11-20T11:30:16;3.17;;;0.52;;
40755;SDS011;26461;45.630;9.418;2022-11-20T11:33:41;5.90;;;1.65;;
40755;SDS011;26461;45.630;9.418;2022-11-20T11:36:52;7.18;;;1.08;;
40755;SDS011;26461;45.630;9.418;2022-11-20T11:40:12;6.60;;;1.75;;
40755;SDS011;26461;45.630;9.418;2022-11-20T11:43:26;3.40;;;1.00;;
40755;SDS011;26461;45.630;9.418;2022-11-20T11:46:58;5.25;;;1.45;;
40755;SDS011;26461;45.630;9.418;2022-11-20T11:53:32;3.30;;;1.50;;
40755;SDS011;26461;45.630;9.418;2022-11-20T11:56:58;2.97;;;1.55;;
40755;SDS011;26461;45.630;9.418;2022-11-20T12:00:19;3.90;;;2.20;;
40755;SDS011;26461;45.630;9.418;2022-11-20T12:03:36;18.25;;;3.38;;
40755;SDS011;26461;45.630;9.418;2022-11-20T12:06:57;11.35;;;2.40;;
40755;SDS011;26461;45.630;9.418;2022-11-20T12:16:53;8.07;;;3.38;;
40755;SDS011;26461;45.630;9.418;2022-11-20T12:27:47;4.88;;;2.00;;
40755;SDS011;26461;45.630;9.418;2022-11-20T12:31:09;3.53;;;1.40;;
40755;SDS011;26461;45.630;9.418;2022-11-20T12:52:56;8.85;;;4.00;;
40755;SDS011;26461;45.630;9.418;2022-11-20T12:59:52;12.90;;;3.83;;
40755;SDS011;26461;45.630;9.418;2022-11-20T13:06:52;8.63;;;2.65;;
40755;SDS011;26461;45.630;9.418;2022-11-20T13:10:04;12.50;;;2.67;;
40755;SDS011;26461;45.630;9.418;2022-11-20T13:20:41;12.10;;;3.20;;
40755;SDS011;26461;45.630;9.418;2022-11-20T13:24:04;4.70;;;2.25;;
40755;SDS011;26461;45.630;9.418;2022-11-20T13:27:47;6.45;;;4.22;;
40755;SDS011;26461;45.630;9.418;2022-11-20T13:30:58;6.05;;;2.67;;
40755;SDS011;26461;45.630;9.418;2022-11-20T13:34:23;4.55;;;2.33;;
40755;SDS011;26461;45.630;9.418;2022-11-20T13:37:38;6.25;;;2.38;;
40755;SDS011;26461;45.630;9.418;2022-11-20T13:40:55;8.65;;;2.47;;
40755;SDS011;26461;45.630;9.418;2022-11-20T13:44:13;5.80;;;3.55;;
40755;SDS011;26461;45.630;9.418;2022-11-20T13:47:31;5.30;;;2.22;;
40755;SDS011;26461;45.630;9.418;2022-11-20T13:51:03;10.10;;;4.10;;
40755;SDS011;26461;45.630;9.418;2022-11-20T13:54:55;5.65;;;3.55;;
40755;SDS011;26461;45.630;9.418;2022-11-20T14:02:26;7.78;;;3.72;;
40755;SDS011;26461;45.630;9.418;2022-11-20T14:05:51;11.10;;;4.00;;
40755;SDS011;26461;45.630;9.418;2022-11-20T14:09:28;7.85;;;3.25;;
40755;SDS011;26461;45.630;9.418;2022-11-20T14:12:37;12.05;;;6.03;;
40755;SDS011;26461;45.630;9.418;2022-11-20T14:15:56;10.68;;;6.50;;
40755;SDS011;26461;45.630;9.418;2022-11-20T14:22:29;7.63;;;5.80;;
40755;SDS011;26461;45.630;9.418;2022-11-20T14:25:35;7.50;;;4.80;;
40755;SDS011;26461;45.630;9.418;2022-11-20T14:28:43;8.38;;;5.43;;
40755;SDS011;26461;45.630;9.418;2022-11-20T14:31:58;8.48;;;5.70;;
40755;SDS011;26461;45.630;9.418;2022-11-20T14:38:55;7.18;;;4.03;;
40755;SDS011;26461;45.630;9.418;2022-11-20T14:42:18;10.75;;;6.38;;
40755;SDS011;26461;45.630;9.418;2022-11-20T14:45:32;9.20;;;5.55;;
40755;SDS011;26461;45.630;9.418;2022-11-20T14:48:47;9.02;;;4.05;;
40755;SDS011;26461;45.630;9.418;2022-11-20T14:52:16;7.53;;;5.50;;
40755;SDS011;26461;45.630;9.418;2022-11-20T14:55:37;11.27;;;6.38;;
40755;SDS011;26461;45.630;9.418;2022-11-20T14:58:45;8.77;;;4.95;;
40755;SDS011;26461;45.630;9.418;2022-11-20T15:02:12;9.98;;;6.75;;
40755;SDS011;26461;45.630;9.418;2022-11-20T15:05:24;12.05;;;4.82;;
40755;SDS011;26461;45.630;9.418;2022-11-20T15:08:57;9.65;;;4.07;;
40755;SDS011;26461;45.630;9.418;2022-11-20T15:12:05;8.80;;;3.78;;
40755;SDS011;26461;45.630;9.418;2022-11-20T15:19:07;8.82;;;2.92;;
40755;SDS011;26461;45.630;9.418;2022-11-20T15:22:37;6.18;;;3.17;;
40755;SDS011;26461;45.630;9.418;2022-11-20T15:25:51;9.00;;;3.25;;
40755;SDS011;26461;45.630;9.418;2022-11-20T15:29:17;6.32;;;2.90;;
40755;SDS011;26461;45.630;9.418;2022-11-20T15:32:34;8.27;;;4.18;;
40755;SDS011;26461;45.630;9.418;2022-11-20T15:35:46;4.75;;;3.10;;
40755;SDS011;26461;45.630;9.418;2022-11-20T15:38:52;12.38;;;3.30;;
40755;SDS011;26461;45.630;9.418;2022-11-20T15:41:59;7.45;;;2.40;;
40755;SDS011;26461;45.630;9.418;2022-11-20T15:45:18;15.75;;;6.07;;
40755;SDS011;26461;45.630;9.418;2022-11-20T15:48:47;4.65;;;2.00;;
40755;SDS011;26461;45.630;9.418;2022-11-20T15:52:09;8.00;;;3.45;;
40755;SDS011;26461;45.630;9.418;2022-11-20T15:55:18;5.03;;;2.97;;
40755;SDS011;26461;45.630;9.418;2022-11-20T15:58:34;7.15;;;3.83;;
40755;SDS011;26461;45.630;9.418;2022-11-20T16:01:45;4.88;;;2.05;;
40755;SDS011;26461;45.630;9.418;2022-11-20T16:05:09;10.82;;;4.40;;
40755;SDS011;26461;45.630;9.418;2022-11-20T16:08:24;7.97;;;3.03;;
40755;SDS011;26461;45.630;9.418;2022-11-20T16:11:56;7.45;;;5.25;;
40755;SDS011;26461;45.630;9.418;2022-11-20T16:15:11;21.30;;;7.30;;
40755;SDS011;26461;45.630;9.418;2022-11-20T16:18:39;10.48;;;6.32;;
40755;SDS011;26461;45.630;9.418;2022-11-20T16:22:01;9.85;;;5.72;;
40755;SDS011;26461;45.630;9.418;2022-11-20T16:25:13;6.68;;;5.25;;
40755;SDS011;26461;45.630;9.418;2022-11-20T16:28:23;8.32;;;4.72;;
40755;SDS011;26461;45.630;9.418;2022-11-20T16:31:38;9.15;;;4.50;;
40755;SDS011;26461;45.630;9.418;2022-11-20T16:34:53;11.65;;;5.20;;
40755;SDS011;26461;45.630;9.418;2022-11-20T16:38:09;13.10;;;9.05;;
40755;SDS011;26461;45.630;9.418;2022-11-20T16:41:23;12.40;;;7.47;;
40755;SDS011;26461;45.630;9.418;2022-11-20T16:44:38;15.80;;;7.82;;
40755;SDS011;26461;45.630;9.418;2022-11-20T16:47:53;14.40;;;7.70;;
40755;SDS011;26461;45.630;9.418;2022-11-20T16:51:04;15.95;;;7.47;;
40755;SDS011;26461;45.630;9.418;2022-11-20T16:54:18;8.23;;;4.43;;
40755;SDS011;26461;45.630;9.418;2022-11-20T16:57:27;13.68;;;6.18;;
40755;SDS011;26461;45.630;9.418;2022-11-20T17:00:41;8.23;;;4.70;;
40755;SDS011;26461;45.630;9.418;2022-11-20T17:03:55;5.80;;;3.67;;
40755;SDS011;26461;45.630;9.418;2022-11-20T17:07:08;7.70;;;3.80;;
40755;SDS011;26461;45.630;9.418;2022-11-20T17:10:18;5.93;;;4.38;;
40755;SDS011;26461;45.630;9.418;2022-11-20T17:13:35;10.00;;;4.32;;
40755;SDS011;26461;45.630;9.418;2022-11-20T17:16:47;12.07;;;4.60;;
40755;SDS011;26461;45.630;9.418;2022-11-20T17:19:52;9.73;;;6.05;;
40755;SDS011;26461;45.630;9.418;2022-11-20T17:23:03;12.90;;;7.25;;
40755;SDS011;26461;45.630;9.418;2022-11-20T17:26:15;18.77;;;7.65;;
40755;SDS011;26461;45.630;9.418;2022-11-20T17:29:27;9.85;;;8.27;;
40755;SDS011;26461;45.630;9.418;2022-11-20T17:32:35;11.45;;;6.35;;
40755;SDS011;26461;45.630;9.418;2022-11-20T17:35:40;13.18;;;7.22;;
40755;SDS011;26461;45.630;9.418;2022-11-20T17:38:46;15.27;;;11.25;;
40755;SDS011;26461;45.630;9.418;2022-11-20T17:41:52;16.35;;;13.20;;
40755;SDS011;26461;45.630;9.418;2022-11-20T17:45:19;16.13;;;15.32;;
40755;SDS011;26461;45.630;9.418;2022-11-20T17:48:24;28.20;;;19.95;;
40755;SDS011;26461;45.630;9.418;2022-11-20T17:51:31;24.90;;;16.35;;
40755;SDS011;26461;45.630;9.418;2022-11-20T17:54:39;33.70;;;21.48;;
40755;SDS011;26461;45.630;9.418;2022-11-20T17:57:50;25.98;;;18.67;;
40755;SDS011;26461;45.630;9.418;2022-11-20T18:01:04;43.10;;;21.73;;
40755;SDS011;26461;45.630;9.418;2022-11-20T18:04:19;28.60;;;16.83;;
40755;SDS011;26461;45.630;9.418;2022-11-20T18:07:36;17.48;;;13.15;;
40755;SDS011;26461;45.630;9.418;2022-11-20T18:10:50;28.02;;;16.85;;
40755;SDS011;26461;45.630;9.418;2022-11-20T18:14:01;19.70;;;13.20;;
40755;SDS011;26461;45.630;9.418;2022-11-20T18:17:28;17.30;;;11.80;;
40755;SDS011;26461;45.630;9.418;2022-11-20T18:20:34;15.75;;;10.15;;
40755;SDS011;26461;45.630;9.418;2022-11-20T18:23:40;11.98;;;11.38;;
40755;SDS011;26461;45.630;9.418;2022-11-20T18:26:51;16.25;;;10.35;;
40755;SDS011;26461;45.630;9.418;2022-11-20T18:30:05;17.95;;;12.52;;
40755;SDS011;26461;45.630;9.418;2022-11-20T18:33:11;19.02;;;15.98;;
40755;SDS011;26461;45.630;9.418;2022-11-20T18:36:25;22.65;;;16.00;;
40755;SDS011;26461;45.630;9.418;2022-11-20T18:39:54;21.13;;;16.35;;
40755;SDS011;26461;45.630;9.418;2022-11-20T18:43:09;21.13;;;16.98;;
40755;SDS011;26461;45.630;9.418;2022-11-20T18:46:34;28.30;;;13.98;;
40755;SDS011;26461;45.630;9.418;2022-11-20T18:49:42;21.70;;;15.93;;
40755;SDS011;26461;45.630;9.418;2022-11-20T18:53:03;19.25;;;17.38;;
40755;SDS011;26461;45.630;9.418;2022-11-20T18:56:38;19.17;;;13.85;;
40755;SDS011;26461;45.630;9.418;2022-11-20T18:59:47;14.63;;;13.85;;
40755;SDS011;26461;45.630;9.418;2022-11-20T19:02:53;28.15;;;13.13;;
40755;SDS011;26461;45.630;9.418;2022-11-20T19:06:11;25.20;;;15.23;;
40755;SDS011;26461;45.630;9.418;2022-11-20T19:09:26;16.52;;;12.43;;
40755;SDS011;26461;45.630;9.418;2022-11-20T19:12:32;17.60;;;13.35;;
40755;SDS011;26461;45.630;9.418;2022-11-20T19:15:41;19.17;;;14.63;;
40755;SDS011;26461;45.630;9.418;2022-11-20T19:18:47;22.52;;;14.57;;
40755;SDS011;26461;45.630;9.418;2022-11-20T19:22:01;33.85;;;15.55;;
40755;SDS011;26461;45.630;9.418;2022-11-20T19:25:14;23.15;;;11.63;;
40755;SDS011;26461;45.630;9.418;2022-11-20T19:28:22;27.30;;;12.65;;
40755;SDS011;26461;45.630;9.418;2022-11-20T19:31:41;17.02;;;11.55;;
40755;SDS011;26461;45.630;9.418;2022-11-20T19:34:50;16.58;;;13.55;;
40755;SDS011;26461;45.630;9.418;2022-11-20T19:37:56;21.33;;;11.10;;
40755;SDS011;26461;45.630;9.418;2022-11-20T19:41:03;18.27;;;11.40;;
40755;SDS011;26461;45.630;9.418;2022-11-20T19:44:18;17.20;;;11.73;;
40755;SDS011;26461;45.630;9.418;2022-11-20T19:47:26;16.08;;;8.90;;
40755;SDS011;26461;45.630;9.418;2022-11-20T19:50:47;18.75;;;11.60;;
40755;SDS011;26461;45.630;9.418;2022-11-20T19:53:59;13.38;;;8.25;;
40755;SDS011;26461;45.630;9.418;2022-11-20T19:57:12;12.88;;;8.45;;
40755;SDS011;26461;45.630;9.418;2022-11-20T20:00:24;12.00;;;8.35;;
40755;SDS011;26461;45.630;9.418;2022-11-20T20:03:52;21.38;;;8.65;;
40755;SDS011;26461;45.630;9.418;2022-11-20T20:07:18;11.88;;;10.65;;
40755;SDS011;26461;45.630;9.418;2022-11-20T20:10:29;6.82;;;3.63;;
40755;SDS011;26461;45.630;9.418;2022-11-20T20:13:41;15.10;;;8.57;;
40755;SDS011;26461;45.630;9.418;2022-11-20T20:16:52;25.40;;;9.75;;
40755;SDS011;26461;45.630;9.418;2022-11-20T20:20:10;13.98;;;8.68;;
40755;SDS011;26461;45.630;9.418;2022-11-20T20:23:17;12.00;;;8.35;;
40755;SDS011;26461;45.630;9.418;2022-11-20T20:26:27;12.43;;;7.68;;
40755;SDS011;26461;45.630;9.418;2022-11-20T20:29:40;17.38;;;8.90;;
40755;SDS011;26461;45.630;9.418;2022-11-20T20:32:55;16.50;;;12.88;;
40755;SDS011;26461;45.630;9.418;2022-11-20T20:36:16;10.75;;;8.25;;
40755;SDS011;26461;45.630;9.418;2022-11-20T20:39:33;15.82;;;11.80;;
40755;SDS011;26461;45.630;9.418;2022-11-20T20:42:50;18.38;;;13.15;;
40755;SDS011;26461;45.630;9.418;2022-11-20T20:45:58;24.45;;;15.30;;
40755;SDS011;26461;45.630;9.418;2022-11-20T20:49:38;18.90;;;17.15;;
40755;SDS011;26461;45.630;9.418;2022-11-20T20:53:25;32.03;;;19.50;;
40755;SDS011;26461;45.630;9.418;2022-11-20T20:56:55;33.67;;;16.25;;
40755;SDS011;26461;45.630;9.418;2022-11-20T21:00:08;29.38;;;17.33;;
40755;SDS011;26461;45.630;9.418;2022-11-20T21:03:30;25.08;;;19.75;;
40755;SDS011;26461;45.630;9.418;2022-11-20T21:06:44;24.77;;;16.63;;
40755;SDS011;26461;45.630;9.418;2022-11-20T21:10:03;27.38;;;17.17;;
40755;SDS011;26461;45.630;9.418;2022-11-20T21:13:16;24.48;;;13.73;;
40755;SDS011;26461;45.630;9.418;2022-11-20T21:16:26;16.80;;;12.57;;
40755;SDS011;26461;45.630;9.418;2022-11-20T21:19:48;20.38;;;13.25;;
40755;SDS011;26461;45.630;9.418;2022-11-20T21:23:12;17.45;;;11.93;;
40755;SDS011;26461;45.630;9.418;2022-11-20T21:26:26;22.83;;;12.82;;
40755;SDS011;26461;45.630;9.418;2022-11-20T21:29:38;18.92;;;13.25;;
40755;SDS011;26461;45.630;9.418;2022-11-20T21:33:03;23.30;;;12.45;;
40755;SDS011;26461;45.630;9.418;2022-11-20T21:36:33;18.85;;;11.23;;